sensor_id;sensor_type;location;lat;lon;timestamp;P1;durP1;ratioP1;P2;durP2;ratioP2
25621;SDS011;13487;39.360;22.962;2022-12-15T00:01:56;0.63;;;0.63;;
25621;SDS011;13487;39.360;22.962;2022-12-15T00:04:41;0.68;;;0.68;;
25621;SDS011;13487;39.360;22.962;2022-12-15T00:07:25;3.75;;;1.15;;
25621;SDS011;13487;39.360;22.962;2022-12-15T00:10:09;0.20;;;0.20;;
25621;SDS011;13487;39.360;22.962;2022-12-15T00:12:53;0.50;;;0.43;;
25621;SDS011;13487;39.360;22.962;2022-12-15T00:15:38;0.30;;;0.30;;
25621;SDS011;13487;39.360;22.962;2022-12-15T00:18:22;0.50;;;0.50;;
25621;SDS011;13487;39.360;22.962;2022-12-15T00:21:06;2.38;;;1.05;;
25621;SDS011;13487;39.360;22.962;2022-12-15T00:23:50;3.88;;;1.05;;
25621;SDS011;13487;39.360;22.962;2022-12-15T00:26:35;0.88;;;0.77;;
25621;SDS011;13487;39.360;22.962;2022-12-15T00:29:19;0.20;;;0.20;;
25621;SDS011;13487;39.360;22.962;2022-12-15T00:32:03;0.40;;;0.40;;
25621;SDS011;13487;39.360;22.962;2022-12-15T00:34:48;1.27;;;1.17;;
25621;SDS011;13487;39.360;22.962;2022-12-15T00:37:32;0.40;;;0.40;;
25621;SDS011;13487;39.360;22.962;2022-12-15T00:40:16;4.38;;;1.63;;
25621;SDS011;13487;39.360;22.962;2022-12-15T00:42:42;0.38;;;0.38;;
25621;SDS011;13487;39.360;22.962;2022-12-15T00:45:07;0.93;;;0.88;;
25621;SDS011;13487;39.360;22.962;2022-12-15T00:47:35;1.65;;;0.93;;
25621;SDS011;13487;39.360;22.962;2022-12-15T00:50:01;0.80;;;0.80;;
25621;SDS011;13487;39.360;22.962;2022-12-15T00:52:45;1.63;;;1.38;;
25621;SDS011;13487;39.360;22.962;2022-12-15T00:55:31;1.05;;;1.05;;
25621;SDS011;13487;39.360;22.962;2022-12-15T00:58:15;0.93;;;0.85;;
25621;SDS011;13487;39.360;22.962;2022-12-15T01:01:06;0.40;;;0.40;;
25621;SDS011;13487;39.360;22.962;2022-12-15T01:03:51;0.35;;;0.35;;
25621;SDS011;13487;39.360;22.962;2022-12-15T01:06:35;0.20;;;0.20;;
25621;SDS011;13487;39.360;22.962;2022-12-15T01:09:20;1.15;;;1.05;;
25621;SDS011;13487;39.360;22.962;2022-12-15T01:12:04;0.57;;;0.50;;
25621;SDS011;13487;39.360;22.962;2022-12-15T01:14:48;0.30;;;0.30;;
25621;SDS011;13487;39.360;22.962;2022-12-15T01:17:32;0.65;;;0.65;;
25621;SDS011;13487;39.360;22.962;2022-12-15T01:20:17;0.55;;;0.55;;
25621;SDS011;13487;39.360;22.962;2022-12-15T01:22:44;0.30;;;0.30;;
25621;SDS011;13487;39.360;22.962;2022-12-15T01:25:14;0.38;;;0.38;;
25621;SDS011;13487;39.360;22.962;2022-12-15T01:27:41;2.47;;;1.20;;
25621;SDS011;13487;39.360;22.962;2022-12-15T01:30:09;0.28;;;0.28;;
25621;SDS011;13487;39.360;22.962;2022-12-15T01:32:36;0.30;;;0.30;;
25621;SDS011;13487;39.360;22.962;2022-12-15T01:35:02;1.20;;;0.50;;
25621;SDS011;13487;39.360;22.962;2022-12-15T01:37:29;0.35;;;0.35;;
25621;SDS011;13487;39.360;22.962;2022-12-15T01:39:55;0.47;;;0.47;;
25621;SDS011;13487;39.360;22.962;2022-12-15T01:42:47;2.65;;;1.23;;
25621;SDS011;13487;39.360;22.962;2022-12-15T01:47:54;0.43;;;0.43;;
25621;SDS011;13487;39.360;22.962;2022-12-15T01:50:34;0.25;;;0.25;;
25621;SDS011;13487;39.360;22.962;2022-12-15T01:53:05;1.55;;;0.63;;
25621;SDS011;13487;39.360;22.962;2022-12-15T01:55:31;2.22;;;1.20;;
25621;SDS011;13487;39.360;22.962;2022-12-15T01:58:01;0.80;;;0.80;;
25621;SDS011;13487;39.360;22.962;2022-12-15T02:00:30;3.17;;;1.98;;
25621;SDS011;13487;39.360;22.962;2022-12-15T02:02:56;5.57;;;0.63;;
25621;SDS011;13487;39.360;22.962;2022-12-15T02:05:24;0.50;;;0.50;;
25621;SDS011;13487;39.360;22.962;2022-12-15T02:07:52;0.47;;;0.47;;
25621;SDS011;13487;39.360;22.962;2022-12-15T02:10:18;0.30;;;0.30;;
25621;SDS011;13487;39.360;22.962;2022-12-15T02:15:58;1.45;;;1.33;;
25621;SDS011;13487;39.360;22.962;2022-12-15T02:21:37;1.17;;;1.08;;
25621;SDS011;13487;39.360;22.962;2022-12-15T02:27:11;0.30;;;0.30;;
25621;SDS011;13487;39.360;22.962;2022-12-15T02:32:42;0.80;;;0.80;;
25621;SDS011;13487;39.360;22.962;2022-12-15T02:35:10;0.47;;;0.47;;
25621;SDS011;13487;39.360;22.962;2022-12-15T02:37:40;12.77;;;0.70;;
25621;SDS011;13487;39.360;22.962;2022-12-15T02:40:09;0.60;;;0.60;;
25621;SDS011;13487;39.360;22.962;2022-12-15T02:42:36;0.15;;;0.15;;
25621;SDS011;13487;39.360;22.962;2022-12-15T02:45:28;0.22;;;0.22;;
25621;SDS011;13487;39.360;22.962;2022-12-15T02:48:10;1.30;;;1.20;;
25621;SDS011;13487;39.360;22.962;2022-12-15T02:51:07;0.40;;;0.40;;
25621;SDS011;13487;39.360;22.962;2022-12-15T02:59:25;1.48;;;1.13;;
25621;SDS011;13487;39.360;22.962;2022-12-15T03:02:01;1.23;;;0.77;;
25621;SDS011;13487;39.360;22.962;2022-12-15T03:04:30;0.43;;;0.43;;
25621;SDS011;13487;39.360;22.962;2022-12-15T03:06:59;1.45;;;1.10;;
25621;SDS011;13487;39.360;22.962;2022-12-15T03:09:28;1.17;;;1.10;;
25621;SDS011;13487;39.360;22.962;2022-12-15T03:11:55;0.47;;;0.47;;
25621;SDS011;13487;39.360;22.962;2022-12-15T03:14:21;0.45;;;0.45;;
25621;SDS011;13487;39.360;22.962;2022-12-15T03:16:49;0.57;;;0.57;;
25621;SDS011;13487;39.360;22.962;2022-12-15T03:19:15;0.30;;;0.30;;
25621;SDS011;13487;39.360;22.962;2022-12-15T03:21:41;0.47;;;0.47;;
25621;SDS011;13487;39.360;22.962;2022-12-15T03:24:07;0.40;;;0.40;;
25621;SDS011;13487;39.360;22.962;2022-12-15T03:26:33;0.80;;;0.80;;
25621;SDS011;13487;39.360;22.962;2022-12-15T03:28:59;22.77;;;1.38;;
25621;SDS011;13487;39.360;22.962;2022-12-15T03:31:25;0.47;;;0.47;;
25621;SDS011;13487;39.360;22.962;2022-12-15T03:33:50;1.13;;;0.52;;
25621;SDS011;13487;39.360;22.962;2022-12-15T03:36:16;0.10;;;0.10;;
25621;SDS011;13487;39.360;22.962;2022-12-15T03:38:42;0.52;;;0.52;;
25621;SDS011;13487;39.360;22.962;2022-12-15T03:41:07;3.63;;;1.27;;
25621;SDS011;13487;39.360;22.962;2022-12-15T03:43:33;0.32;;;0.32;;
25621;SDS011;13487;39.360;22.962;2022-12-15T03:45:59;0.20;;;0.20;;
25621;SDS011;13487;39.360;22.962;2022-12-15T03:48:25;0.80;;;0.75;;
25621;SDS011;13487;39.360;22.962;2022-12-15T03:50:51;0.20;;;0.20;;
25621;SDS011;13487;39.360;22.962;2022-12-15T03:53:17;0.30;;;0.30;;
25621;SDS011;13487;39.360;22.962;2022-12-15T03:55:42;1.08;;;1.08;;
25621;SDS011;13487;39.360;22.962;2022-12-15T03:58:08;0.63;;;0.63;;
25621;SDS011;13487;39.360;22.962;2022-12-15T04:00:34;0.63;;;0.63;;
25621;SDS011;13487;39.360;22.962;2022-12-15T04:02:59;0.55;;;0.55;;
25621;SDS011;13487;39.360;22.962;2022-12-15T04:05:26;0.57;;;0.57;;
25621;SDS011;13487;39.360;22.962;2022-12-15T04:07:55;0.68;;;0.22;;
25621;SDS011;13487;39.360;22.962;2022-12-15T04:10:22;0.30;;;0.30;;
25621;SDS011;13487;39.360;22.962;2022-12-15T04:12:55;2.53;;;1.40;;
25621;SDS011;13487;39.360;22.962;2022-12-15T04:15:25;0.52;;;0.43;;
25621;SDS011;13487;39.360;22.962;2022-12-15T04:17:51;1.10;;;0.85;;
25621;SDS011;13487;39.360;22.962;2022-12-15T04:20:17;0.20;;;0.20;;
25621;SDS011;13487;39.360;22.962;2022-12-15T04:22:44;0.40;;;0.40;;
25621;SDS011;13487;39.360;22.962;2022-12-15T04:25:13;0.35;;;0.35;;
25621;SDS011;13487;39.360;22.962;2022-12-15T04:28:03;0.43;;;0.38;;
25621;SDS011;13487;39.360;22.962;2022-12-15T04:30:50;0.73;;;0.40;;
25621;SDS011;13487;39.360;22.962;2022-12-15T04:33:40;0.65;;;0.65;;
25621;SDS011;13487;39.360;22.962;2022-12-15T04:36:27;0.10;;;0.10;;
25621;SDS011;13487;39.360;22.962;2022-12-15T04:39:13;0.30;;;0.30;;
25621;SDS011;13487;39.360;22.962;2022-12-15T04:41:58;1.05;;;0.68;;
25621;SDS011;13487;39.360;22.962;2022-12-15T04:44:44;0.70;;;0.70;;
25621;SDS011;13487;39.360;22.962;2022-12-15T04:47:30;0.32;;;0.32;;
25621;SDS011;13487;39.360;22.962;2022-12-15T04:50:14;0.40;;;0.40;;
25621;SDS011;13487;39.360;22.962;2022-12-15T04:53:06;1.65;;;0.85;;
25621;SDS011;13487;39.360;22.962;2022-12-15T04:55:53;0.77;;;0.73;;
25621;SDS011;13487;39.360;22.962;2022-12-15T04:58:37;0.55;;;0.40;;
25621;SDS011;13487;39.360;22.962;2022-12-15T05:01:22;0.20;;;0.20;;
25621;SDS011;13487;39.360;22.962;2022-12-15T05:04:06;0.47;;;0.47;;
25621;SDS011;13487;39.360;22.962;2022-12-15T05:06:50;1.90;;;0.93;;
25621;SDS011;13487;39.360;22.962;2022-12-15T05:09:35;0.40;;;0.40;;
25621;SDS011;13487;39.360;22.962;2022-12-15T05:12:19;1.40;;;0.65;;
25621;SDS011;13487;39.360;22.962;2022-12-15T05:15:04;0.20;;;0.20;;
25621;SDS011;13487;39.360;22.962;2022-12-15T05:17:48;0.47;;;0.47;;
25621;SDS011;13487;39.360;22.962;2022-12-15T05:20:33;0.40;;;0.40;;
25621;SDS011;13487;39.360;22.962;2022-12-15T05:23:17;0.20;;;0.20;;
25621;SDS011;13487;39.360;22.962;2022-12-15T05:26:01;0.68;;;0.68;;
25621;SDS011;13487;39.360;22.962;2022-12-15T05:28:45;0.30;;;0.30;;
25621;SDS011;13487;39.360;22.962;2022-12-15T05:31:30;0.77;;;0.77;;
25621;SDS011;13487;39.360;22.962;2022-12-15T05:34:20;1.60;;;0.47;;
25621;SDS011;13487;39.360;22.962;2022-12-15T05:36:47;0.20;;;0.20;;
25621;SDS011;13487;39.360;22.962;2022-12-15T05:39:13;0.77;;;0.40;;
25621;SDS011;13487;39.360;22.962;2022-12-15T05:41:39;0.65;;;0.65;;
25621;SDS011;13487;39.360;22.962;2022-12-15T05:44:06;2.15;;;1.48;;
25621;SDS011;13487;39.360;22.962;2022-12-15T05:46:32;0.95;;;0.55;;
25621;SDS011;13487;39.360;22.962;2022-12-15T05:48:57;3.35;;;0.75;;
25621;SDS011;13487;39.360;22.962;2022-12-15T05:51:23;3.00;;;1.35;;
25621;SDS011;13487;39.360;22.962;2022-12-15T05:53:49;1.80;;;1.10;;
25621;SDS011;13487;39.360;22.962;2022-12-15T05:56:15;0.70;;;0.70;;
25621;SDS011;13487;39.360;22.962;2022-12-15T05:58:40;1.90;;;1.70;;
25621;SDS011;13487;39.360;22.962;2022-12-15T06:01:07;1.50;;;0.80;;
25621;SDS011;13487;39.360;22.962;2022-12-15T06:03:36;1.08;;;1.02;;
25621;SDS011;13487;39.360;22.962;2022-12-15T06:06:03;1.38;;;1.15;;
25621;SDS011;13487;39.360;22.962;2022-12-15T06:08:30;2.22;;;2.13;;
25621;SDS011;13487;39.360;22.962;2022-12-15T06:11:01;3.83;;;2.47;;
25621;SDS011;13487;39.360;22.962;2022-12-15T06:13:27;4.97;;;1.33;;
25621;SDS011;13487;39.360;22.962;2022-12-15T06:18:27;5.68;;;2.30;;
25621;SDS011;13487;39.360;22.962;2022-12-15T06:20:58;1.38;;;0.85;;
25621;SDS011;13487;39.360;22.962;2022-12-15T06:23:26;1.80;;;1.67;;
25621;SDS011;13487;39.360;22.962;2022-12-15T06:25:52;2.65;;;2.03;;
25621;SDS011;13487;39.360;22.962;2022-12-15T06:28:19;0.90;;;0.85;;
25621;SDS011;13487;39.360;22.962;2022-12-15T06:30:52;1.65;;;1.52;;
25621;SDS011;13487;39.360;22.962;2022-12-15T06:33:19;2.03;;;1.27;;
25621;SDS011;13487;39.360;22.962;2022-12-15T06:35:46;3.08;;;2.10;;
25621;SDS011;13487;39.360;22.962;2022-12-15T06:38:12;1.38;;;1.27;;
25621;SDS011;13487;39.360;22.962;2022-12-15T06:40:38;2.22;;;1.92;;
25621;SDS011;13487;39.360;22.962;2022-12-15T06:43:05;3.35;;;1.85;;
25621;SDS011;13487;39.360;22.962;2022-12-15T06:45:32;1.70;;;1.55;;
25621;SDS011;13487;39.360;22.962;2022-12-15T06:47:58;1.98;;;1.73;;
25621;SDS011;13487;39.360;22.962;2022-12-15T06:50:24;2.28;;;1.98;;
25621;SDS011;13487;39.360;22.962;2022-12-15T06:52:50;9.02;;;2.15;;
25621;SDS011;13487;39.360;22.962;2022-12-15T06:55:16;3.53;;;3.13;;
25621;SDS011;13487;39.360;22.962;2022-12-15T06:57:41;4.60;;;4.05;;
25621;SDS011;13487;39.360;22.962;2022-12-15T07:00:07;5.13;;;3.05;;
25621;SDS011;13487;39.360;22.962;2022-12-15T07:02:34;7.88;;;2.97;;
25621;SDS011;13487;39.360;22.962;2022-12-15T07:04:59;4.22;;;2.88;;
25621;SDS011;13487;39.360;22.962;2022-12-15T07:07:25;2.95;;;2.20;;
25621;SDS011;13487;39.360;22.962;2022-12-15T07:09:51;1.83;;;1.52;;
25621;SDS011;13487;39.360;22.962;2022-12-15T07:12:17;2.92;;;1.90;;
25621;SDS011;13487;39.360;22.962;2022-12-15T07:14:43;2.15;;;1.95;;
25621;SDS011;13487;39.360;22.962;2022-12-15T07:17:09;9.18;;;2.70;;
25621;SDS011;13487;39.360;22.962;2022-12-15T07:19:35;1.35;;;1.25;;
25621;SDS011;13487;39.360;22.962;2022-12-15T07:22:01;8.32;;;2.83;;
25621;SDS011;13487;39.360;22.962;2022-12-15T07:24:27;5.78;;;3.53;;
25621;SDS011;13487;39.360;22.962;2022-12-15T07:26:53;5.65;;;2.33;;
25621;SDS011;13487;39.360;22.962;2022-12-15T07:29:19;1.40;;;1.30;;
25621;SDS011;13487;39.360;22.962;2022-12-15T07:31:45;24.00;;;4.60;;
25621;SDS011;13487;39.360;22.962;2022-12-15T07:34:11;4.70;;;2.03;;
25621;SDS011;13487;39.360;22.962;2022-12-15T07:36:38;2.40;;;2.22;;
25621;SDS011;13487;39.360;22.962;2022-12-15T07:39:04;4.60;;;2.10;;
25621;SDS011;13487;39.360;22.962;2022-12-15T07:41:30;4.20;;;2.80;;
25621;SDS011;13487;39.360;22.962;2022-12-15T07:43:56;5.57;;;1.95;;
25621;SDS011;13487;39.360;22.962;2022-12-15T07:46:22;10.05;;;2.80;;
25621;SDS011;13487;39.360;22.962;2022-12-15T07:48:49;3.50;;;2.20;;
25621;SDS011;13487;39.360;22.962;2022-12-15T07:51:15;9.32;;;2.80;;
25621;SDS011;13487;39.360;22.962;2022-12-15T07:53:41;5.03;;;2.63;;
25621;SDS011;13487;39.360;22.962;2022-12-15T07:56:07;6.13;;;3.50;;
25621;SDS011;13487;39.360;22.962;2022-12-15T07:58:33;5.18;;;3.15;;
25621;SDS011;13487;39.360;22.962;2022-12-15T08:01:01;5.07;;;3.53;;
25621;SDS011;13487;39.360;22.962;2022-12-15T08:03:27;2.88;;;2.60;;
25621;SDS011;13487;39.360;22.962;2022-12-15T08:05:53;2.38;;;2.17;;
25621;SDS011;13487;39.360;22.962;2022-12-15T08:08:19;1.42;;;1.33;;
25621;SDS011;13487;39.360;22.962;2022-12-15T08:10:46;7.53;;;2.80;;
25621;SDS011;13487;39.360;22.962;2022-12-15T08:13:13;6.60;;;2.75;;
25621;SDS011;13487;39.360;22.962;2022-12-15T08:15:39;1.23;;;1.13;;
25621;SDS011;13487;39.360;22.962;2022-12-15T08:18:05;8.00;;;4.00;;
25621;SDS011;13487;39.360;22.962;2022-12-15T08:20:31;2.33;;;1.52;;
25621;SDS011;13487;39.360;22.962;2022-12-15T08:22:57;4.25;;;2.53;;
25621;SDS011;13487;39.360;22.962;2022-12-15T08:25:24;10.38;;;3.28;;
25621;SDS011;13487;39.360;22.962;2022-12-15T08:27:53;2.90;;;2.13;;
25621;SDS011;13487;39.360;22.962;2022-12-15T08:30:19;4.72;;;3.08;;
25621;SDS011;13487;39.360;22.962;2022-12-15T08:32:45;3.03;;;1.48;;
25621;SDS011;13487;39.360;22.962;2022-12-15T08:35:12;17.50;;;3.05;;
25621;SDS011;13487;39.360;22.962;2022-12-15T08:37:38;1.40;;;1.05;;
25621;SDS011;13487;39.360;22.962;2022-12-15T08:40:04;5.72;;;3.22;;
25621;SDS011;13487;39.360;22.962;2022-12-15T08:42:36;1.42;;;1.30;;
25621;SDS011;13487;39.360;22.962;2022-12-15T08:45:03;2.78;;;1.52;;
25621;SDS011;13487;39.360;22.962;2022-12-15T08:47:29;1.75;;;1.58;;
25621;SDS011;13487;39.360;22.962;2022-12-15T08:49:55;2.65;;;1.67;;
25621;SDS011;13487;39.360;22.962;2022-12-15T08:52:21;6.68;;;2.35;;
25621;SDS011;13487;39.360;22.962;2022-12-15T08:54:47;1.88;;;1.73;;
25621;SDS011;13487;39.360;22.962;2022-12-15T08:57:13;5.82;;;3.08;;
25621;SDS011;13487;39.360;22.962;2022-12-15T08:59:39;3.70;;;2.67;;
25621;SDS011;13487;39.360;22.962;2022-12-15T09:02:05;3.65;;;2.25;;
25621;SDS011;13487;39.360;22.962;2022-12-15T09:04:31;4.60;;;3.33;;
25621;SDS011;13487;39.360;22.962;2022-12-15T09:06:57;2.65;;;2.40;;
25621;SDS011;13487;39.360;22.962;2022-12-15T09:09:23;2.42;;;2.22;;
25621;SDS011;13487;39.360;22.962;2022-12-15T09:11:49;3.53;;;2.28;;
25621;SDS011;13487;39.360;22.962;2022-12-15T09:14:15;6.82;;;3.95;;
25621;SDS011;13487;39.360;22.962;2022-12-15T09:16:41;2.35;;;2.10;;
25621;SDS011;13487;39.360;22.962;2022-12-15T09:19:07;8.00;;;2.55;;
25621;SDS011;13487;39.360;22.962;2022-12-15T09:21:33;1.60;;;1.50;;
25621;SDS011;13487;39.360;22.962;2022-12-15T09:23:59;2.67;;;2.15;;
25621;SDS011;13487;39.360;22.962;2022-12-15T09:26:27;26.50;;;2.33;;
25621;SDS011;13487;39.360;22.962;2022-12-15T09:28:54;2.83;;;1.42;;
25621;SDS011;13487;39.360;22.962;2022-12-15T09:31:25;1.88;;;1.33;;
25621;SDS011;13487;39.360;22.962;2022-12-15T09:33:53;0.55;;;0.55;;
25621;SDS011;13487;39.360;22.962;2022-12-15T09:36:20;3.05;;;2.78;;
25621;SDS011;13487;39.360;22.962;2022-12-15T09:38:46;6.10;;;3.72;;
25621;SDS011;13487;39.360;22.962;2022-12-15T09:44:01;5.00;;;1.55;;
25621;SDS011;13487;39.360;22.962;2022-12-15T09:46:40;0.95;;;0.95;;
25621;SDS011;13487;39.360;22.962;2022-12-15T09:52:21;1.42;;;1.30;;
25621;SDS011;13487;39.360;22.962;2022-12-15T09:54:53;1.60;;;1.20;;
25621;SDS011;13487;39.360;22.962;2022-12-15T10:06:18;3.88;;;1.52;;
25621;SDS011;13487;39.360;22.962;2022-12-15T10:08:27;3.90;;;1.83;;
25621;SDS011;13487;39.360;22.962;2022-12-15T10:10:59;2.17;;;1.63;;
25621;SDS011;13487;39.360;22.962;2022-12-15T10:16:25;4.07;;;1.33;;
25621;SDS011;13487;39.360;22.962;2022-12-15T10:21:32;4.47;;;1.75;;
25621;SDS011;13487;39.360;22.962;2022-12-15T10:26:42;0.88;;;0.82;;
25621;SDS011;13487;39.360;22.962;2022-12-15T10:34:55;6.93;;;1.90;;
25621;SDS011;13487;39.360;22.962;2022-12-15T10:37:21;6.25;;;2.15;;
25621;SDS011;13487;39.360;22.962;2022-12-15T10:39:48;4.38;;;1.40;;
25621;SDS011;13487;39.360;22.962;2022-12-15T10:42:24;3.92;;;1.83;;
25621;SDS011;13487;39.360;22.962;2022-12-15T10:44:52;7.57;;;3.92;;
25621;SDS011;13487;39.360;22.962;2022-12-15T10:47:20;7.22;;;5.25;;
25621;SDS011;13487;39.360;22.962;2022-12-15T10:49:54;5.07;;;2.55;;
25621;SDS011;13487;39.360;22.962;2022-12-15T10:52:39;8.65;;;4.75;;
25621;SDS011;13487;39.360;22.962;2022-12-15T10:58:03;0.95;;;0.95;;
25621;SDS011;13487;39.360;22.962;2022-12-15T11:00:40;3.00;;;2.20;;
25621;SDS011;13487;39.360;22.962;2022-12-15T11:03:19;1.95;;;1.45;;
25621;SDS011;13487;39.360;22.962;2022-12-15T11:05:53;2.30;;;1.80;;
25621;SDS011;13487;39.360;22.962;2022-12-15T11:08:20;3.13;;;1.40;;
25621;SDS011;13487;39.360;22.962;2022-12-15T11:10:51;4.18;;;1.80;;
25621;SDS011;13487;39.360;22.962;2022-12-15T11:13:37;1.25;;;1.13;;
25621;SDS011;13487;39.360;22.962;2022-12-15T11:16:13;1.48;;;1.35;;
25621;SDS011;13487;39.360;22.962;2022-12-15T11:18:48;4.95;;;2.15;;
25621;SDS011;13487;39.360;22.962;2022-12-15T11:21:25;0.88;;;0.88;;
25621;SDS011;13487;39.360;22.962;2022-12-15T11:31:48;4.82;;;1.58;;
25621;SDS011;13487;39.360;22.962;2022-12-15T11:34:24;0.88;;;0.80;;
25621;SDS011;13487;39.360;22.962;2022-12-15T11:42:19;1.73;;;1.02;;
25621;SDS011;13487;39.360;22.962;2022-12-15T11:45:07;0.40;;;0.40;;
25621;SDS011;13487;39.360;22.962;2022-12-15T11:47:45;1.33;;;1.23;;
25621;SDS011;13487;39.360;22.962;2022-12-15T11:50:28;1.85;;;1.42;;
25621;SDS011;13487;39.360;22.962;2022-12-15T11:58:35;1.50;;;1.30;;
25621;SDS011;13487;39.360;22.962;2022-12-15T12:04:16;3.58;;;2.03;;
25621;SDS011;13487;39.360;22.962;2022-12-15T12:07:02;3.47;;;1.45;;
25621;SDS011;13487;39.360;22.962;2022-12-15T12:09:46;8.50;;;2.25;;
25621;SDS011;13487;39.360;22.962;2022-12-15T12:12:26;1.55;;;1.15;;
25621;SDS011;13487;39.360;22.962;2022-12-15T12:20:06;25.85;;;1.85;;
25621;SDS011;13487;39.360;22.962;2022-12-15T12:23:01;0.88;;;0.73;;
25621;SDS011;13487;39.360;22.962;2022-12-15T12:25:33;3.70;;;2.10;;
25621;SDS011;13487;39.360;22.962;2022-12-15T12:28:43;3.53;;;1.20;;
25621;SDS011;13487;39.360;22.962;2022-12-15T12:31:54;1.33;;;1.23;;
25621;SDS011;13487;39.360;22.962;2022-12-15T12:34:27;1.02;;;0.93;;
25621;SDS011;13487;39.360;22.962;2022-12-15T12:36:56;0.57;;;0.57;;
25621;SDS011;13487;39.360;22.962;2022-12-15T12:39:25;2.35;;;2.17;;
25621;SDS011;13487;39.360;22.962;2022-12-15T12:44:36;1.20;;;1.10;;
25621;SDS011;13487;39.360;22.962;2022-12-15T12:47:12;0.70;;;0.70;;
25621;SDS011;13487;39.360;22.962;2022-12-15T12:49:47;2.33;;;2.15;;
25621;SDS011;13487;39.360;22.962;2022-12-15T12:52:31;1.85;;;1.38;;
25621;SDS011;13487;39.360;22.962;2022-12-15T12:55:01;3.15;;;1.38;;
25621;SDS011;13487;39.360;22.962;2022-12-15T12:57:40;1.42;;;1.05;;
25621;SDS011;13487;39.360;22.962;2022-12-15T13:05:26;4.85;;;1.40;;
25621;SDS011;13487;39.360;22.962;2022-12-15T13:10:29;1.25;;;0.60;;
25621;SDS011;13487;39.360;22.962;2022-12-15T13:16:03;5.15;;;3.05;;
25621;SDS011;13487;39.360;22.962;2022-12-15T13:29:32;2.42;;;1.40;;
25621;SDS011;13487;39.360;22.962;2022-12-15T13:31:59;5.35;;;1.10;;
25621;SDS011;13487;39.360;22.962;2022-12-15T13:34:26;4.47;;;1.88;;
25621;SDS011;13487;39.360;22.962;2022-12-15T13:36:54;1.15;;;1.10;;
25621;SDS011;13487;39.360;22.962;2022-12-15T13:44:20;1.38;;;1.27;;
25621;SDS011;13487;39.360;22.962;2022-12-15T13:47:41;5.38;;;2.55;;
25621;SDS011;13487;39.360;22.962;2022-12-15T13:55:19;1.27;;;1.17;;
25621;SDS011;13487;39.360;22.962;2022-12-15T13:57:50;3.35;;;2.15;;
25621;SDS011;13487;39.360;22.962;2022-12-15T14:00:21;4.13;;;1.75;;
25621;SDS011;13487;39.360;22.962;2022-12-15T14:02:47;0.75;;;0.75;;
25621;SDS011;13487;39.360;22.962;2022-12-15T14:07:43;1.80;;;1.15;;
25621;SDS011;13487;39.360;22.962;2022-12-15T14:13:16;4.57;;;1.85;;
25621;SDS011;13487;39.360;22.962;2022-12-15T14:15:58;19.67;;;1.90;;
25621;SDS011;13487;39.360;22.962;2022-12-15T14:18:35;1.38;;;1.27;;
25621;SDS011;13487;39.360;22.962;2022-12-15T14:21:22;5.97;;;2.78;;
25621;SDS011;13487;39.360;22.962;2022-12-15T14:23:50;3.55;;;0.98;;
25621;SDS011;13487;39.360;22.962;2022-12-15T14:26:16;0.77;;;0.77;;
25621;SDS011;13487;39.360;22.962;2022-12-15T14:28:43;5.00;;;2.47;;
25621;SDS011;13487;39.360;22.962;2022-12-15T14:31:13;2.42;;;2.22;;
25621;SDS011;13487;39.360;22.962;2022-12-15T14:33:42;2.95;;;1.38;;
25621;SDS011;13487;39.360;22.962;2022-12-15T14:36:11;3.10;;;1.83;;
25621;SDS011;13487;39.360;22.962;2022-12-15T14:38:49;1.38;;;1.15;;
25621;SDS011;13487;39.360;22.962;2022-12-15T14:41:24;5.57;;;2.55;;
25621;SDS011;13487;39.360;22.962;2022-12-15T14:44:03;3.85;;;1.25;;
25621;SDS011;13487;39.360;22.962;2022-12-15T14:46:31;1.00;;;1.00;;
25621;SDS011;13487;39.360;22.962;2022-12-15T14:49:04;6.35;;;2.20;;
25621;SDS011;13487;39.360;22.962;2022-12-15T14:51:43;1.10;;;1.00;;
25621;SDS011;13487;39.360;22.962;2022-12-15T14:57:22;4.90;;;1.70;;
25621;SDS011;13487;39.360;22.962;2022-12-15T15:00:14;1.83;;;1.70;;
25621;SDS011;13487;39.360;22.962;2022-12-15T15:05:40;10.95;;;3.33;;
25621;SDS011;13487;39.360;22.962;2022-12-15T15:08:15;4.65;;;2.28;;
25621;SDS011;13487;39.360;22.962;2022-12-15T15:10:50;0.77;;;0.73;;
25621;SDS011;13487;39.360;22.962;2022-12-15T15:13:18;2.92;;;2.58;;
25621;SDS011;13487;39.360;22.962;2022-12-15T15:15:50;11.40;;;2.97;;
25621;SDS011;13487;39.360;22.962;2022-12-15T15:18:18;2.92;;;2.72;;
25621;SDS011;13487;39.360;22.962;2022-12-15T15:20:50;8.48;;;2.97;;
25621;SDS011;13487;39.360;22.962;2022-12-15T15:23:23;3.60;;;3.33;;
25621;SDS011;13487;39.360;22.962;2022-12-15T15:25:53;3.50;;;1.77;;
25621;SDS011;13487;39.360;22.962;2022-12-15T15:28:34;2.63;;;2.40;;
25621;SDS011;13487;39.360;22.962;2022-12-15T15:31:01;0.80;;;0.80;;
25621;SDS011;13487;39.360;22.962;2022-12-15T15:33:54;4.55;;;2.03;;
25621;SDS011;13487;39.360;22.962;2022-12-15T15:36:22;3.67;;;2.47;;
25621;SDS011;13487;39.360;22.962;2022-12-15T15:38:52;3.83;;;3.13;;
25621;SDS011;13487;39.360;22.962;2022-12-15T15:41:19;4.28;;;2.10;;
25621;SDS011;13487;39.360;22.962;2022-12-15T15:43:50;4.38;;;3.58;;
25621;SDS011;13487;39.360;22.962;2022-12-15T15:46:23;2.63;;;2.42;;
25621;SDS011;13487;39.360;22.962;2022-12-15T15:48:52;5.55;;;3.08;;
25621;SDS011;13487;39.360;22.962;2022-12-15T15:51:22;2.03;;;1.90;;
25621;SDS011;13487;39.360;22.962;2022-12-15T15:53:48;6.35;;;3.63;;
25621;SDS011;13487;39.360;22.962;2022-12-15T15:56:15;5.65;;;2.35;;
25621;SDS011;13487;39.360;22.962;2022-12-15T15:58:41;3.25;;;1.75;;
25621;SDS011;13487;39.360;22.962;2022-12-15T16:01:08;8.90;;;2.92;;
25621;SDS011;13487;39.360;22.962;2022-12-15T16:03:34;3.00;;;2.58;;
25621;SDS011;13487;39.360;22.962;2022-12-15T16:06:00;3.63;;;2.67;;
25621;SDS011;13487;39.360;22.962;2022-12-15T16:08:27;7.78;;;3.58;;
25621;SDS011;13487;39.360;22.962;2022-12-15T16:10:59;2.67;;;2.47;;
25621;SDS011;13487;39.360;22.962;2022-12-15T16:13:25;4.32;;;2.20;;
25621;SDS011;13487;39.360;22.962;2022-12-15T16:15:51;9.20;;;3.55;;
25621;SDS011;13487;39.360;22.962;2022-12-15T16:18:18;3.30;;;3.10;;
25621;SDS011;13487;39.360;22.962;2022-12-15T16:20:45;3.20;;;2.70;;
25621;SDS011;13487;39.360;22.962;2022-12-15T16:23:32;6.32;;;4.97;;
25621;SDS011;13487;39.360;22.962;2022-12-15T16:25:58;23.50;;;5.55;;
25621;SDS011;13487;39.360;22.962;2022-12-15T16:28:25;6.65;;;4.45;;
25621;SDS011;13487;39.360;22.962;2022-12-15T16:30:53;6.88;;;4.15;;
25621;SDS011;13487;39.360;22.962;2022-12-15T16:33:20;10.05;;;4.40;;
25621;SDS011;13487;39.360;22.962;2022-12-15T16:35:46;7.63;;;4.47;;
25621;SDS011;13487;39.360;22.962;2022-12-15T16:38:15;6.43;;;3.97;;
25621;SDS011;13487;39.360;22.962;2022-12-15T16:40:43;8.32;;;5.38;;
25621;SDS011;13487;39.360;22.962;2022-12-15T16:43:12;5.90;;;3.25;;
25621;SDS011;13487;39.360;22.962;2022-12-15T16:45:44;16.33;;;6.53;;
25621;SDS011;13487;39.360;22.962;2022-12-15T16:48:12;8.07;;;4.22;;
25621;SDS011;13487;39.360;22.962;2022-12-15T16:50:40;10.68;;;5.32;;
25621;SDS011;13487;39.360;22.962;2022-12-15T16:53:14;10.85;;;6.25;;
25621;SDS011;13487;39.360;22.962;2022-12-15T16:55:42;5.32;;;4.88;;
25621;SDS011;13487;39.360;22.962;2022-12-15T16:58:10;9.02;;;7.25;;
25621;SDS011;13487;39.360;22.962;2022-12-15T17:00:42;8.00;;;5.38;;
25621;SDS011;13487;39.360;22.962;2022-12-15T17:03:14;12.43;;;6.43;;
25621;SDS011;13487;39.360;22.962;2022-12-15T17:05:42;7.20;;;4.97;;
25621;SDS011;13487;39.360;22.962;2022-12-15T17:08:14;36.60;;;8.98;;
25621;SDS011;13487;39.360;22.962;2022-12-15T17:10:43;17.63;;;6.60;;